Time;durP1;ratioP1;P1;durP2;ratioP2;P2;SDS_P1;SDS_P2;PMS_P1;PMS_P2;Temp;Humidity;BMP_temperature;BMP_pressure;BME280_temperature;BME280_humidity;BME280_pressure;Samples;Min_cycle;Max_cycle;Signal;HPM_P1;HPM_P2
2023/01/30 00:02:36;;;;;;;;;;;;;;;18.93;64.40;100667.05;2291178;76;51599;-72
2023/01/30 00:05:38;;;;;;;;;;;;;;;18.98;64.23;100650.90;2302673;76;51575;-74
2023/01/30 00:08:40;;;;;;;;;;;;;;;18.95;64.19;100656.64;2302597;77;51455;-71
2023/01/30 00:11:41;;;;;;;;;;;;;;;18.90;64.24;100640.59;2287167;77;50445;-72
2023/01/30 00:14:43;;;;;;;;;;;;;;;18.85;64.31;100629.59;2303865;76;51368;-73
2023/01/30 00:17:44;;;;;;;;;;;;;;;18.78;64.45;100620.64;2265112;76;51029;-72
2023/01/30 00:20:46;;;;;;;;;;;;;;;18.72;64.66;100605.25;2302466;77;50183;-72
2023/01/30 00:23:48;;;;;;;;;;;;;;;18.66;64.76;100597.96;2302249;77;50387;-72
2023/01/30 00:26:49;;;;;;;;;;;;;;;18.61;65.36;100595.00;2289303;76;50194;-71
2023/01/30 00:29:51;;;;;;;;;;;;;;;18.64;65.37;100587.92;2273692;76;50653;-71
2023/01/30 00:32:56;;;;;;;;;;;;;;;18.69;65.35;100577.48;2266697;78;51434;-73
2023/01/30 00:35:57;;;;;;;;;;;;;;;18.78;65.09;100557.66;2266762;78;50345;-71
2023/01/30 00:38:59;;;;;;;;;;;;;;;18.88;64.79;100550.16;2266898;77;50463;-72
2023/01/30 00:48:39;;;;;;;;;;;;;;;18.90;64.48;100503.03;2284674;77;22391;-71
2023/01/30 00:51:41;;;;;;;;;;;;;;;18.84;64.56;100492.55;2280909;77;50362;-71
2023/01/30 00:54:43;;;;;;;;;;;;;;;18.79;64.74;100478.89;2280534;77;52364;-72
2023/01/30 00:57:44;;;;;;;;;;;;;;;18.70;64.93;100452.68;2304905;77;51483;-73
2023/01/30 01:00:46;;;;;;;;;;;;;;;18.65;65.15;100458.27;2295305;77;50083;-73
2023/01/30 01:03:47;;;;;;;;;;;;;;;18.61;65.40;100446.27;2291343;77;50553;-73
2023/01/30 01:06:49;;;;;;;;;;;;;;;18.61;65.66;100436.89;2249903;77;51826;-73
2023/01/30 01:09:50;;;;;;;;;;;;;;;18.63;65.53;100440.22;2279423;77;50748;-73
2023/01/30 01:12:52;;;;;;;;;;;;;;;18.66;65.58;100449.22;2293599;77;51583;-73
2023/01/30 01:15:54;;;;;;;;;;;;;;;18.70;65.53;100447.33;2289730;76;50974;-73
2023/01/30 01:18:55;;;;;;;;;;;;;;;18.74;65.39;100433.53;2247837;77;50983;-73
2023/01/30 01:21:57;;;;;;;;;;;;;;;18.76;65.32;100433.70;2264516;77;50397;-73
2023/01/30 01:24:58;;;;;;;;;;;;;;;18.80;65.24;100412.18;2274432;77;49972;-73
2023/01/30 01:28:00;;;;;;;;;;;;;;;18.84;65.08;100364.39;2256320;78;50430;-73
2023/01/30 01:31:03;;;;;;;;;;;;;;;18.90;64.96;100368.46;2217508;78;51560;-74
2023/01/30 01:34:05;;;;;;;;;;;;;;;18.92;64.82;100373.13;2270885;77;50784;-73
2023/01/30 01:37:06;;;;;;;;;;;;;;;18.98;64.73;100375.55;2290698;77;51433;-74
2023/01/30 01:43:31;;;;;;;;;;;;;;;18.97;64.56;100363.69;2300871;77;22291;-73
2023/01/30 01:46:34;;;;;;;;;;;;;;;18.91;64.64;100367.97;2279288;77;51522;-74
2023/01/30 01:49:35;;;;;;;;;;;;;;;18.85;64.73;100388.31;2263194;78;51536;-73
2023/01/30 01:52:37;;;;;;;;;;;;;;;18.80;64.82;100392.59;2278221;77;51491;-74
2023/01/30 01:55:39;;;;;;;;;;;;;;;18.74;64.97;100382.09;2268850;77;49338;-74
2023/01/30 01:58:42;;;;;;;;;;;;;;;18.67;65.13;100391.39;2283892;77;51560;-73
2023/01/30 02:01:44;;;;;;;;;;;;;;;18.63;65.64;100366.53;2297015;77;51560;-73
2023/01/30 02:05:01;;;;;;;;;;;;;;;18.65;65.58;100364.47;2290980;76;50374;-74
2023/01/30 02:08:17;;;;;;;;;;;;;;;18.73;65.44;100348.28;2298990;76;50099;-74
2023/01/30 02:11:29;;;;;;;;;;;;;;;18.82;65.28;100324.37;2286420;77;51612;-74
2023/01/30 02:14:32;;;;;;;;;;;;;;;18.90;64.99;100308.14;2299888;77;50227;-72
2023/01/30 02:17:33;;;;;;;;;;;;;;;18.94;64.75;100301.90;2290225;77;51554;-73
2023/01/30 02:20:49;;;;;;;;;;;;;;;18.92;64.73;100295.38;2303886;76;50094;-73
2023/01/30 02:23:58;;;;;;;;;;;;;;;18.89;64.74;100293.61;2301965;77;51370;-73
2023/01/30 02:27:05;;;;;;;;;;;;;;;18.86;64.76;100285.44;2302174;76;51513;-73
2023/01/30 02:30:17;;;;;;;;;;;;;;;18.80;64.81;100255.38;2302244;77;51558;-73
2023/01/30 02:33:32;;;;;;;;;;;;;;;18.72;65.02;100254.14;2277911;77;51705;-72
2023/01/30 02:36:44;;;;;;;;;;;;;;;18.66;65.14;100250.39;2302199;76;50777;-74
2023/01/30 02:39:48;;;;;;;;;;;;;;;18.60;65.47;100251.17;2302184;76;50497;-73
2023/01/30 02:42:51;;;;;;;;;;;;;;;18.60;65.59;100243.63;2301746;76;50453;-72
2023/01/30 02:46:10;;;;;;;;;;;;;;;18.61;65.55;100238.08;2260832;77;52515;-73
2023/01/30 02:49:19;;;;;;;;;;;;;;;18.63;65.61;100236.56;2266723;78;50799;-73
2023/01/30 02:52:21;;;;;;;;;;;;;;;18.68;65.46;100222.08;2256407;78;50467;-74
2023/01/30 02:55:23;;;;;;;;;;;;;;;18.71;65.34;100214.46;2266751;78;50353;-73
2023/01/30 02:58:26;;;;;;;;;;;;;;;18.74;65.27;100211.91;2243298;78;51069;-73
2023/01/30 03:01:35;;;;;;;;;;;;;;;18.77;65.13;100189.28;2266697;78;50501;-73
2023/01/30 03:04:38;;;;;;;;;;;;;;;18.81;65.06;100177.16;2266551;78;50258;-73
2023/01/30 03:07:41;;;;;;;;;;;;;;;18.84;64.98;100173.55;2266653;78;50381;-72
2023/01/30 03:10:44;;;;;;;;;;;;;;;18.90;64.81;100162.55;2266721;78;50138;-72
2023/01/30 03:13:50;;;;;;;;;;;;;;;18.95;64.67;100155.27;2269491;77;50808;-72
2023/01/30 03:16:52;;;;;;;;;;;;;;;18.95;64.52;100153.92;2278462;77;50792;-73
2023/01/30 03:19:54;;;;;;;;;;;;;;;18.93;64.59;100136.69;2282099;77;50389;-72
2023/01/30 03:22:56;;;;;;;;;;;;;;;18.89;64.62;100156.89;2303572;76;51376;-72
2023/01/30 03:25:57;;;;;;;;;;;;;;;18.84;64.71;100141.39;2302246;77;51443;-72
2023/01/30 03:28:59;;;;;;;;;;;;;;;18.80;64.82;100141.97;2302329;77;50455;-71
2023/01/30 03:32:00;;;;;;;;;;;;;;;18.72;64.93;100130.34;2302122;77;50220;-72
2023/01/30 03:35:02;;;;;;;;;;;;;;;18.67;65.18;100144.02;2278195;77;51738;-72
2023/01/30 03:38:03;;;;;;;;;;;;;;;18.62;65.40;100126.36;2302274;77;51605;-71
2023/01/30 03:41:05;;;;;;;;;;;;;;;18.65;65.46;100117.92;2302218;77;51475;-72
2023/01/30 03:44:07;;;;;;;;;;;;;;;18.74;65.28;100115.94;2302003;77;51579;-72
2023/01/30 03:47:08;;;;;;;;;;;;;;;18.81;65.04;100139.11;2303751;76;51004;-71
2023/01/30 03:50:10;;;;;;;;;;;;;;;18.89;64.79;100138.95;2289540;77;50745;-72
2023/01/30 03:53:12;;;;;;;;;;;;;;;18.96;64.58;100112.67;2303721;76;50312;-71
2023/01/30 03:56:13;;;;;;;;;;;;;;;18.97;64.40;100104.97;2302353;76;50228;-72
2023/01/30 03:59:15;;;;;;;;;;;;;;;18.92;64.44;100095.65;2278143;77;50113;-71
2023/01/30 04:02:21;;;;;;;;;;;;;;;18.88;64.56;100086.37;2303970;76;50729;-72
2023/01/30 04:05:20;;;;;;;;;;;;;;;18.83;64.63;100083.45;2302730;76;22941;-72
2023/01/30 04:08:21;;;;;;;;;;;;;;;18.78;64.78;100080.55;2303793;76;50391;-72
2023/01/30 04:11:23;;;;;;;;;;;;;;;18.70;64.96;100071.27;2303834;76;50317;-72
2023/01/30 04:14:24;;;;;;;;;;;;;;;18.63;65.11;100061.87;2301976;77;50274;-72
2023/01/30 04:17:26;;;;;;;;;;;;;;;18.61;65.52;100056.39;2302343;77;50642;-70
2023/01/30 04:20:27;;;;;;;;;;;;;;;18.62;65.50;100056.70;2268451;76;51585;-72
2023/01/30 04:23:29;;;;;;;;;;;;;;;18.63;65.42;100036.94;2255662;77;52529;-72
2023/01/30 04:26:31;;;;;;;;;;;;;;;18.65;65.29;100042.89;2304895;77;51512;-71
2023/01/30 04:29:32;;;;;;;;;;;;;;;18.67;65.23;100034.97;2280771;77;51571;-71
2023/01/30 04:32:34;;;;;;;;;;;;;;;18.70;65.16;100043.13;2304596;77;50347;-71
2023/01/30 04:35:35;;;;;;;;;;;;;;;18.72;65.12;100042.42;2280657;77;49625;-72
2023/01/30 04:38:37;;;;;;;;;;;;;;;18.73;65.06;100030.70;2280731;77;50663;-72
2023/01/30 04:41:39;;;;;;;;;;;;;;;18.77;65.10;100029.28;2304812;77;50189;-72
2023/01/30 04:44:40;;;;;;;;;;;;;;;18.83;64.99;100017.78;2304634;77;50355;-72
2023/01/30 04:47:42;;;;;;;;;;;;;;;18.87;64.81;100024.38;2279354;77;50221;-72
2023/01/30 04:50:43;;;;;;;;;;;;;;;18.91;64.67;100016.27;2290450;77;51443;-72
2023/01/30 04:53:45;;;;;;;;;;;;;;;18.96;64.53;100009.45;2301953;77;50804;-72
2023/01/30 04:56:47;;;;;;;;;;;;;;;18.96;64.40;100002.75;2303755;76;50383;-72
2023/01/30 04:59:48;;;;;;;;;;;;;;;18.93;64.37;99998.13;2304047;76;50413;-72
2023/01/30 05:02:50;;;;;;;;;;;;;;;18.90;64.39;99995.83;2302130;77;50733;-71
2023/01/30 05:05:52;;;;;;;;;;;;;;;18.84;64.49;99996.64;2302344;76;50345;-72
2023/01/30 05:08:54;;;;;;;;;;;;;;;18.78;64.70;99985.88;2302294;76;50287;-72
2023/01/30 05:11:55;;;;;;;;;;;;;;;18.72;64.82;99986.97;2277941;77;52399;-72
2023/01/30 05:14:57;;;;;;;;;;;;;;;18.67;65.06;99975.20;2303937;76;51431;-75
2023/01/30 05:17:59;;;;;;;;;;;;;;;18.65;65.24;99975.91;2301305;77;50196;-73
2023/01/30 05:21:11;;;;;;;;;;;;;;;18.68;64.90;99967.49;2291608;77;50291;-73
2023/01/30 05:24:12;;;;;;;;;;;;;;;18.74;64.67;99969.36;2280039;77;52406;-73
2023/01/30 05:27:14;;;;;;;;;;;;;;;18.84;64.23;99965.00;2280583;77;50824;-73
2023/01/30 05:30:16;;;;;;;;;;;;;;;18.89;63.99;99970.06;2280763;77;50184;-73
2023/01/30 05:33:17;;;;;;;;;;;;;;;18.92;63.75;99968.31;2301879;77;51595;-75
2023/01/30 05:36:19;;;;;;;;;;;;;;;18.90;63.40;99951.59;2278168;77;52966;-75
2023/01/30 05:39:21;;;;;;;;;;;;;;;18.85;63.09;99950.03;2302334;77;50291;-75
2023/01/30 05:42:22;;;;;;;;;;;;;;;18.80;63.02;99934.25;2278072;77;50627;-75
2023/01/30 05:45:24;;;;;;;;;;;;;;;18.74;63.04;99943.90;2302208;77;50632;-76
2023/01/30 05:48:27;;;;;;;;;;;;;;;18.68;63.23;99924.62;2268006;77;51185;-76
2023/01/30 05:51:29;;;;;;;;;;;;;;;18.63;63.45;99925.73;2279401;77;51679;-74
2023/01/30 05:54:30;;;;;;;;;;;;;;;18.57;63.41;99926.52;2270809;77;51528;-75
2023/01/30 05:57:32;;;;;;;;;;;;;;;18.56;63.48;99919.00;2302357;77;51462;-73
2023/01/30 06:00:33;;;;;;;;;;;;;;;18.59;63.50;99903.03;2278412;77;52289;-75
2023/01/30 06:03:35;;;;;;;;;;;;;;;18.60;63.41;99902.84;2303768;76;51397;-75
2023/01/30 06:06:37;;;;;;;;;;;;;;;18.62;63.35;99885.20;2302358;76;51512;-76
2023/01/30 06:09:38;;;;;;;;;;;;;;;18.65;63.23;99887.48;2303879;76;50630;-75
2023/01/30 06:12:40;;;;;;;;;;;;;;;18.68;63.19;99891.12;2278000;77;52383;-75
2023/01/30 06:15:41;;;;;;;;;;;;;;;18.72;63.09;99891.02;2305073;76;51464;-74
2023/01/30 06:18:45;;;;;;;;;;;;;;;18.77;62.94;99877.04;2300596;77;50187;-74
2023/01/30 06:21:46;;;;;;;;;;;;;;;18.83;62.73;99884.26;2266907;78;22396;-74
2023/01/30 06:24:48;;;;;;;;;;;;;;;18.88;62.60;99884.47;2233775;77;51647;-73
2023/01/30 06:27:49;;;;;;;;;;;;;;;18.91;62.45;99882.23;2304799;77;51392;-73
2023/01/30 06:30:51;;;;;;;;;;;;;;;18.99;62.25;99888.44;2280761;77;51445;-73
2023/01/30 06:33:53;;;;;;;;;;;;;;;19.04;62.08;99876.58;2280523;77;50533;-73
2023/01/30 06:36:54;;;;;;;;;;;;;;;19.01;62.03;99882.33;2280718;77;52483;-74
2023/01/30 06:39:56;;;;;;;;;;;;;;;18.96;62.04;99887.47;2280894;77;50041;-74
2023/01/30 06:42:57;;;;;;;;;;;;;;;18.89;62.16;99893.66;2280481;77;50689;-73
2023/01/30 06:45:59;;;;;;;;;;;;;;;18.84;62.25;99882.73;2305214;77;50729;-73
2023/01/30 06:49:01;;;;;;;;;;;;;;;18.78;62.35;99887.57;2264332;78;51113;-74
2023/01/30 06:52:02;;;;;;;;;;;;;;;18.71;62.54;99884.83;2253665;78;50744;-76
2023/01/30 06:55:04;;;;;;;;;;;;;;;18.67;62.86;99890.79;2250476;77;50625;-73
2023/01/30 06:58:06;;;;;;;;;;;;;;;18.70;62.93;99886.36;2225611;78;50704;-73
2023/01/30 07:01:08;;;;;;;;;;;;;;;18.76;62.72;99880.24;2225327;78;52298;-73
2023/01/30 07:04:10;;;;;;;;;;;;;;;18.84;62.42;99877.88;2250558;79;51505;-73
2023/01/30 07:07:11;;;;;;;;;;;;;;;18.90;62.17;99865.00;2262556;77;51636;-73
2023/01/30 07:10:13;;;;;;;;;;;;;;;18.98;61.81;99863.97;2245183;78;50655;-73
2023/01/30 07:13:15;;;;;;;;;;;;;;;19.00;61.55;99853.88;2228706;77;50934;-73
2023/01/30 07:16:17;;;;;;;;;;;;;;;18.98;61.35;99859.95;2274973;77;50675;-73
2023/01/30 07:19:19;;;;;;;;;;;;;;;18.96;61.26;99851.28;2245275;78;50653;-74
2023/01/30 07:22:20;;;;;;;;;;;;;;;18.88;61.32;99849.13;2268282;78;50405;-73
2023/01/30 07:25:22;;;;;;;;;;;;;;;18.79;61.43;99842.30;2221022;78;49869;-73
2023/01/30 07:28:24;;;;;;;;;;;;;;;18.73;61.51;99847.13;2271171;78;51466;-73
2023/01/30 07:31:26;;;;;;;;;;;;;;;18.65;61.66;99832.55;2245362;78;50729;-73
2023/01/30 07:34:27;;;;;;;;;;;;;;;18.59;61.77;99838.73;2245203;78;50753;-73
2023/01/30 07:37:29;;;;;;;;;;;;;;;18.56;61.89;99843.16;2220374;78;51659;-73
2023/01/30 07:40:30;;;;;;;;;;;;;;;18.55;61.89;99838.32;2270515;78;50616;-74
2023/01/30 07:43:32;;;;;;;;;;;;;;;18.58;61.82;99839.25;2280930;77;50661;-73
2023/01/30 07:46:34;;;;;;;;;;;;;;;18.61;61.72;99836.16;2281613;77;51197;-73
2023/01/30 07:49:36;;;;;;;;;;;;;;;18.63;61.63;99834.63;2243182;77;51697;-73
2023/01/30 07:52:38;;;;;;;;;;;;;;;18.65;61.56;99844.12;2281486;77;50282;-73
2023/01/30 07:55:39;;;;;;;;;;;;;;;18.67;61.50;99831.31;2305608;77;51590;-73
2023/01/30 07:58:41;;;;;;;;;;;;;;;18.75;61.32;99849.58;2305870;77;51353;-73
2023/01/30 08:01:43;;;;;;;;;;;;;;;18.76;61.24;99851.28;2256653;77;52454;-73
2023/01/30 08:04:44;;;;;;;;;;;;;;;18.77;61.23;99854.26;2281313;77;50756;-74
2023/01/30 08:07:48;;;;;;;;;;;;;;;18.79;61.12;99858.39;2305829;77;51531;-74
2023/01/30 08:10:50;;;;;;;;;;;;;;;18.83;61.00;99860.13;2269770;77;51411;-74
2023/01/30 08:13:52;;;;;;;;;;;;;;;18.88;60.85;99850.97;2232262;77;52244;-74
2023/01/30 08:16:53;;;;;;;;;;;;;;;18.90;60.64;99848.39;2295029;77;50653;-74
2023/01/30 08:19:55;;;;;;;;;;;;;;;18.98;60.43;99849.23;2303449;77;50722;-74
2023/01/30 08:22:57;;;;;;;;;;;;;;;18.96;60.43;99849.45;2303033;77;50261;-74
2023/01/30 08:26:00;;;;;;;;;;;;;;;18.93;60.44;99851.18;2304449;76;52514;-74
2023/01/30 08:29:02;;;;;;;;;;;;;;;18.87;60.53;99853.34;2303345;77;50002;-73
2023/01/30 08:32:03;;;;;;;;;;;;;;;18.79;60.65;99847.67;2303262;77;50212;-74
2023/01/30 08:35:05;;;;;;;;;;;;;;;18.72;60.80;99842.77;2304778;76;50433;-74
2023/01/30 08:38:09;;;;;;;;;;;;;;;18.65;60.90;99828.05;2304803;76;50336;-74
2023/01/30 08:41:11;;;;;;;;;;;;;;;18.60;61.04;99815.77;2303365;77;51508;-74
2023/01/30 08:44:13;;;;;;;;;;;;;;;18.61;61.14;99828.64;2294647;77;50248;-74
2023/01/30 08:47:14;;;;;;;;;;;;;;;18.64;61.11;99838.42;2299053;77;50048;-74
2023/01/30 08:50:16;;;;;;;;;;;;;;;18.71;60.92;99837.11;2279106;77;51163;-74
2023/01/30 08:53:17;;;;;;;;;;;;;;;18.80;60.64;99837.25;2302898;77;51504;-74
2023/01/30 08:56:19;;;;;;;;;;;;;;;18.81;60.56;99842.94;2304440;76;50344;-74
2023/01/30 08:59:20;;;;;;;;;;;;;;;18.83;60.46;99836.86;2303013;77;50259;-74
2023/01/30 09:02:22;;;;;;;;;;;;;;;18.90;60.24;99848.39;2304599;77;51102;-75
2023/01/30 09:05:24;;;;;;;;;;;;;;;18.94;60.11;99842.13;2303092;77;50660;-74
2023/01/30 09:08:25;;;;;;;;;;;;;;;18.96;59.91;99836.05;2303256;77;50265;-74
2023/01/30 09:11:27;;;;;;;;;;;;;;;18.97;59.84;99836.87;2303077;76;50452;-74
2023/01/30 09:14:28;;;;;;;;;;;;;;;18.88;59.96;99837.56;2268349;77;51471;-74
2023/01/30 09:17:30;;;;;;;;;;;;;;;18.82;60.07;99838.39;2268119;78;50476;-74
2023/01/30 09:20:32;;;;;;;;;;;;;;;18.75;60.22;99838.38;2267598;78;50309;-74
2023/01/30 09:23:33;;;;;;;;;;;;;;;18.66;60.40;99852.45;2244279;78;50667;-74
2023/01/30 09:26:35;;;;;;;;;;;;;;;18.61;60.51;99844.20;2244171;78;50659;-74
2023/01/30 09:29:36;;;;;;;;;;;;;;;18.59;60.60;99850.27;2244175;78;51445;-74
2023/01/30 09:32:38;;;;;;;;;;;;;;;18.63;60.60;99850.70;2267539;78;51512;-74
2023/01/30 09:35:39;;;;;;;;;;;;;;;18.65;60.51;99845.45;2244261;77;50680;-74
2023/01/30 09:38:41;;;;;;;;;;;;;;;18.69;60.47;99849.36;2267549;78;51403;-74
2023/01/30 09:41:57;;;;;;;;;;;;;;;18.72;60.42;99854.83;2244224;78;52481;-74
2023/01/30 09:45:03;;;;;;;;;;;;;;;18.74;60.33;99854.13;2267579;77;51517;-74
2023/01/30 09:48:10;;;;;;;;;;;;;;;18.78;60.24;99854.07;2248751;78;51396;-74
2023/01/30 09:51:13;;;;;;;;;;;;;;;18.82;60.10;99847.77;2267605;78;51568;-74
2023/01/30 09:54:16;;;;;;;;;;;;;;;18.86;60.02;99845.83;2267416;78;51512;-74
2023/01/30 09:57:21;;;;;;;;;;;;;;;18.89;59.96;99850.77;2267674;77;50278;-74
2023/01/30 10:00:24;;;;;;;;;;;;;;;18.93;59.87;99849.84;2244178;78;51658;-74
2023/01/30 10:03:28;;;;;;;;;;;;;;;18.98;59.73;99845.20;2257549;78;50684;-74
2023/01/30 10:06:29;;;;;;;;;;;;;;;19.03;59.56;99844.08;2242837;78;51549;-74
2023/01/30 10:09:41;;;;;;;;;;;;;;;19.00;59.50;99841.81;2267793;78;51499;-74
2023/01/30 10:12:57;;;;;;;;;;;;;;;18.95;59.58;99842.95;2267797;77;51566;-76
2023/01/30 10:16:03;;;;;;;;;;;;;;;18.89;59.64;99844.08;2279330;77;50714;-74
2023/01/30 10:19:12;;;;;;;;;;;;;;;18.82;59.77;99830.35;2243669;77;51757;-74
2023/01/30 10:22:28;;;;;;;;;;;;;;;18.75;59.94;99834.84;2279168;77;50772;-74
2023/01/30 10:25:39;;;;;;;;;;;;;;;18.66;60.10;99828.86;2267399;78;51622;-74
2023/01/30 10:28:42;;;;;;;;;;;;;;;18.61;60.31;99840.70;2266699;78;50383;-74
2023/01/30 10:31:49;;;;;;;;;;;;;;;18.64;60.35;99841.63;2242333;78;51227;-74
2023/01/30 10:34:51;;;;;;;;;;;;;;;18.68;60.26;99832.98;2265602;78;51523;-75
2023/01/30 10:38:06;;;;;;;;;;;;;;;18.76;60.08;99845.41;2266682;78;51559;-73
2023/01/30 10:41:09;;;;;;;;;;;;;;;18.85;59.82;99847.36;2266967;78;50769;-74
2023/01/30 10:44:12;;;;;;;;;;;;;;;18.91;59.59;99842.02;2242543;78;51244;-74
2023/01/30 10:47:15;;;;;;;;;;;;;;;18.96;59.49;99836.54;2266742;78;51463;-75
2023/01/30 10:50:17;;;;;;;;;;;;;;;18.98;59.29;99829.12;2274857;77;50863;-74
2023/01/30 10:53:21;;;;;;;;;;;;;;;18.95;59.32;99817.48;2290131;76;51134;-74
2023/01/30 10:56:24;;;;;;;;;;;;;;;18.90;59.35;99832.30;2277884;77;51712;-76
2023/01/30 10:59:33;;;;;;;;;;;;;;;18.83;59.45;99827.48;2283722;77;50160;-76
2023/01/30 11:02:39;;;;;;;;;;;;;;;18.76;59.66;99824.48;2302407;76;50714;-75
2023/01/30 11:05:43;;;;;;;;;;;;;;;18.67;59.77;99820.59;2302266;76;51580;-75
2023/01/30 11:08:44;;;;;;;;;;;;;;;18.62;59.90;99817.70;2278273;77;50936;-75
2023/01/30 11:11:49;;;;;;;;;;;;;;;18.61;60.08;99815.25;2302372;77;50397;-75
2023/01/30 11:14:53;;;;;;;;;;;;;;;18.60;60.08;99815.77;2303771;76;52451;-75
2023/01/30 11:17:56;;;;;;;;;;;;;;;18.69;59.93;99802.98;2302495;77;50792;-75
2023/01/30 11:21:02;;;;;;;;;;;;;;;18.68;59.91;99802.69;2266343;77;51693;-75
2023/01/30 11:24:05;;;;;;;;;;;;;;;18.72;59.80;99798.03;2303743;77;50848;-75
2023/01/30 11:27:17;;;;;;;;;;;;;;;18.77;59.69;99788.08;2304942;77;50310;-75
2023/01/30 11:30:19;;;;;;;;;;;;;;;18.80;59.65;99778.80;2305306;77;51496;-74
2023/01/30 11:33:21;;;;;;;;;;;;;;;18.86;59.47;99764.59;2264047;77;52544;-75
2023/01/30 11:36:24;;;;;;;;;;;;;;;18.87;59.45;99761.69;2304924;77;51578;-76
2023/01/30 11:39:28;;;;;;;;;;;;;;;18.91;59.35;99752.22;2280819;77;50787;-75
2023/01/30 11:42:30;;;;;;;;;;;;;;;18.95;59.29;99753.14;2304911;77;50445;-75
2023/01/30 11:45:36;;;;;;;;;;;;;;;18.99;59.16;99751.70;2280814;77;51498;-76
2023/01/30 11:48:39;;;;;;;;;;;;;;;19.02;59.04;99741.91;2305037;77;51518;-75
2023/01/30 11:51:42;;;;;;;;;;;;;;;18.96;59.05;99740.88;2297260;77;51525;-75
2023/01/30 11:54:44;;;;;;;;;;;;;;;18.92;59.08;99740.45;2304868;77;50293;-76
2023/01/30 11:57:57;;;;;;;;;;;;;;;18.87;59.22;99735.41;2280603;77;52011;-75
2023/01/30 12:00:58;;;;;;;;;;;;;;;18.79;59.33;99728.92;2293566;77;22257;-74
2023/01/30 12:04:00;;;;;;;;;;;;;;;18.73;59.46;99717.15;2290570;76;50627;-75
2023/01/30 12:07:06;;;;;;;;;;;;;;;18.64;59.63;99727.75;2302652;77;50207;-75
2023/01/30 12:10:18;;;;;;;;;;;;;;;18.66;59.72;99720.34;2278488;77;52564;-75
2023/01/30 12:13:21;;;;;;;;;;;;;;;18.67;59.72;99708.58;2302247;76;50648;-75
2023/01/30 12:16:30;;;;;;;;;;;;;;;18.76;59.51;99742.74;2302621;76;50824;-76
2023/01/30 12:19:49;;;;;;;;;;;;;;;18.81;59.32;99751.81;2302774;76;22392;-76
2023/01/30 12:22:58;;;;;;;;;;;;;;;18.86;59.17;99735.11;2302326;77;50703;-75
2023/01/30 12:26:04;;;;;;;;;;;;;;;18.89;59.06;99730.16;2302639;76;51443;-75
2023/01/30 12:29:07;;;;;;;;;;;;;;;18.98;58.79;99712.50;2302606;76;50322;-74
2023/01/30 12:32:11;;;;;;;;;;;;;;;19.02;58.62;99713.75;2285057;76;50465;-74
2023/01/30 12:35:16;;;;;;;;;;;;;;;19.00;58.60;99707.77;2263732;78;51310;-74
2023/01/30 12:38:19;;;;;;;;;;;;;;;18.94;58.68;99714.79;2267187;78;49954;-74
2023/01/30 12:41:22;;;;;;;;;;;;;;;18.86;58.81;99703.77;2266895;78;50247;-75
2023/01/30 12:44:28;;;;;;;;;;;;;;;18.79;58.94;99694.91;2266741;78;50274;-74
2023/01/30 12:47:44;;;;;;;;;;;;;;;18.71;59.13;99692.41;2266890;76;50343;-74
2023/01/30 12:51:05;;;;;;;;;;;;;;;18.64;59.27;99700.44;2267401;78;51537;-75
2023/01/30 12:54:09;;;;;;;;;;;;;;;18.61;59.38;99685.30;2229852;79;51531;-75
2023/01/30 12:57:15;;;;;;;;;;;;;;;18.64;59.42;99681.68;2229669;79;51512;-75
2023/01/30 13:00:20;;;;;;;;;;;;;;;18.69;59.30;99693.12;2205427;80;51737;-75
2023/01/30 13:03:25;;;;;;;;;;;;;;;18.75;59.15;99678.92;2217877;78;50427;-75
2023/01/30 13:06:45;;;;;;;;;;;;;;;18.76;59.14;99681.92;2230019;79;50393;-75
2023/01/30 13:09:51;;;;;;;;;;;;;;;18.79;59.07;99686.05;2229948;80;50700;-75
2023/01/30 13:12:54;;;;;;;;;;;;;;;18.83;58.97;99682.75;2206994;80;51812;-75
2023/01/30 13:15:57;;;;;;;;;;;;;;;18.85;58.91;99669.94;2229560;80;50792;-75
2023/01/30 13:19:03;;;;;;;;;;;;;;;18.90;58.83;99680.04;2230029;80;51381;-75
2023/01/30 13:22:22;;;;;;;;;;;;;;;18.94;58.72;99674.58;2229421;80;50319;-75
2023/01/30 13:25:25;;;;;;;;;;;;;;;18.98;58.62;99672.30;2228651;78;50362;-75
2023/01/30 13:28:34;;;;;;;;;;;;;;;18.99;58.52;99664.05;2267234;77;51527;-75
2023/01/30 13:31:37;;;;;;;;;;;;;;;18.97;58.48;99667.45;2278639;77;51523;-75
2023/01/30 13:34:39;;;;;;;;;;;;;;;18.92;58.57;99683.34;2291064;77;50318;-75
2023/01/30 13:37:41;;;;;;;;;;;;;;;18.84;58.72;99666.96;2303848;76;52461;-76
2023/01/30 13:40:43;;;;;;;;;;;;;;;18.78;58.82;99658.42;2302462;76;51402;-75
2023/01/30 13:43:46;;;;;;;;;;;;;;;18.73;58.92;99642.12;2302298;77;50446;-76
2023/01/30 13:46:48;;;;;;;;;;;;;;;18.66;59.03;99650.67;2302525;77;50246;-76
2023/01/30 13:49:52;;;;;;;;;;;;;;;18.65;59.10;99658.39;2304218;76;52431;-76
2023/01/30 13:52:55;;;;;;;;;;;;;;;18.66;59.16;99660.87;2302073;77;52268;-76
2023/01/30 13:55:57;;;;;;;;;;;;;;;18.72;59.03;99659.20;2302265;76;51548;-76
2023/01/30 13:59:08;;;;;;;;;;;;;;;18.77;58.90;99663.46;2302576;77;51577;-75
2023/01/30 14:02:16;;;;;;;;;;;;;;;18.83;58.74;99660.45;2293640;76;25052;-75
2023/01/30 14:05:20;;;;;;;;;;;;;;;18.87;58.57;99670.56;2308682;77;50702;-75
2023/01/30 14:08:22;;;;;;;;;;;;;;;18.95;58.36;99672.72;2305109;77;50401;-75
2023/01/30 14:11:29;;;;;;;;;;;;;;;18.96;58.25;99693.97;2306152;77;50714;-75
2023/01/30 14:14:31;;;;;;;;;;;;;;;18.98;58.07;99701.78;2281488;77;52726;-75
2023/01/30 14:17:33;;;;;;;;;;;;;;;18.92;58.15;99714.98;2307998;77;50283;-75
2023/01/30 14:20:36;;;;;;;;;;;;;;;18.85;58.26;99717.36;2306707;77;50615;-75
2023/01/30 14:23:38;;;;;;;;;;;;;;;18.77;58.38;99721.08;2304428;77;50870;-75
2023/01/30 14:26:41;;;;;;;;;;;;;;;18.70;58.51;99706.82;2305857;77;51418;-75
2023/01/30 14:29:44;;;;;;;;;;;;;;;18.64;58.62;99718.37;2299918;77;51640;-75
2023/01/30 14:32:53;;;;;;;;;;;;;;;18.60;58.78;99726.02;2281291;77;50454;-75
2023/01/30 14:36:02;;;;;;;;;;;;;;;18.62;58.79;99730.62;2302398;77;50237;-75
2023/01/30 14:39:22;;;;;;;;;;;;;;;18.63;58.83;99739.52;2278126;77;51286;-75
2023/01/30 14:42:24;;;;;;;;;;;;;;;18.69;58.64;99754.75;2302176;76;51515;-75
2023/01/30 14:45:44;;;;;;;;;;;;;;;18.74;58.52;99768.36;2302342;76;50428;-74
2023/01/30 14:48:55;;;;;;;;;;;;;;;18.77;58.40;99774.68;2302312;77;51542;-74
2023/01/30 14:51:54;;;;;;;;;;;;;;;18.82;58.29;99788.28;2301375;77;22418;-75
2023/01/30 14:54:56;;;;;;;;;;;;;;;18.83;58.26;99804.70;2302340;77;51589;-75
2023/01/30 14:57:59;;;;;;;;;;;;;;;18.87;58.19;99803.76;2302353;76;50431;-76
2023/01/30 15:01:01;;;;;;;;;;;;;;;18.93;58.04;99809.14;2302460;77;51478;-74
2023/01/30 15:04:02;;;;;;;;;;;;;;;18.93;58.00;99797.08;2290381;77;51498;-74
2023/01/30 15:07:06;;;;;;;;;;;;;;;18.99;57.86;99805.33;2302313;77;51417;-75
2023/01/30 15:10:22;;;;;;;;;;;;;;;19.01;57.76;99805.43;2302263;76;50780;-74
2023/01/30 15:13:25;;;;;;;;;;;;;;;18.99;57.67;99813.37;2302123;76;51526;-74
2023/01/30 15:16:35;;;;;;;;;;;;;;;18.95;57.73;99816.14;2278352;77;52341;-74
2023/01/30 15:19:38;;;;;;;;;;;;;;;18.87;57.83;99813.95;2302435;76;50349;-75
2023/01/30 15:22:44;;;;;;;;;;;;;;;18.81;57.95;99817.47;2302390;76;51444;-74
2023/01/30 15:25:50;;;;;;;;;;;;;;;18.76;58.07;99811.08;2302129;77;51547;-74
2023/01/30 15:29:06;;;;;;;;;;;;;;;18.69;58.18;99819.06;2277911;77;51238;-74
2023/01/30 15:32:17;;;;;;;;;;;;;;;18.66;58.32;99814.12;2286007;76;51506;-75
2023/01/30 15:35:20;;;;;;;;;;;;;;;18.65;58.38;99815.98;2299176;77;50375;-75
2023/01/30 15:38:24;;;;;;;;;;;;;;;18.70;58.30;99833.61;2302348;76;50346;-75
2023/01/30 15:41:25;;;;;;;;;;;;;;;18.77;58.16;99836.84;2278515;77;51738;-74
2023/01/30 15:44:44;;;;;;;;;;;;;;;18.84;57.91;99833.66;2302324;77;50676;-74
2023/01/30 15:47:50;;;;;;;;;;;;;;;18.90;57.78;99838.19;2302513;76;50663;-74
2023/01/30 15:50:53;;;;;;;;;;;;;;;18.97;57.59;99828.83;2286755;77;52362;-75
2023/01/30 15:53:55;;;;;;;;;;;;;;;18.98;57.51;99859.43;2242823;78;50147;-73
2023/01/30 15:56:57;;;;;;;;;;;;;;;18.97;57.66;99855.63;2267538;78;50677;-74
2023/01/30 15:59:58;;;;;;;;;;;;;;;18.97;57.72;99861.00;2271485;77;50225;-74
2023/01/30 16:03:00;;;;;;;;;;;;;;;18.93;57.86;99870.80;2293046;77;50004;-73